Shenandoah Natl Park, Virginia
Current Conditions -  °F | °C
As of 11:35 AM on Tuesday 27 Jan 2015 (Local Time) from KLUA Reporting Station
Light Snow Light Snow  
Wind Chill: 32°   Ceiling: 2600
Heat Index: 32°   Visibility: 2.5mi
Dew Point: 28°   Wind: 0mph
Humidity: 87%   Direction: NA
Pressure: 29.85"   Gusts: NA
Location:  38.52°N, 78.4°W
Report Text: KLUA 271635Z AUTO 00000KT 2 1/2SM -SN SCT013 SCT020 OVC026 00/M02 A2985 RMK AO2 VIS 1 1/4V4
Loading
Personal Weather Stations






























Interactive Weather Map New forecast layout! Learn more

10-Day Weather Forecast

Advertisements
Track Severe Weather on mobile